createdAt,value
2018-10-05T00:02:26.579Z,12.13
2018-10-05T00:04:57.074Z,11.83
2018-10-05T00:07:29.034Z,11.50
2018-10-05T00:09:59.820Z,10.13
2018-10-05T00:12:30.410Z,10.30
2018-10-05T00:15:00.886Z,10.37
2018-10-05T00:17:31.696Z,10.90
2018-10-05T00:20:02.100Z,11.77
2018-10-05T00:22:32.447Z,11.33
2018-10-05T00:25:02.817Z,12.97
2018-10-05T00:27:33.220Z,14.30
2018-10-05T00:30:04.210Z,12.27
2018-10-05T00:32:35.323Z,11.90
2018-10-05T00:35:05.995Z,11.77
2018-10-05T00:37:36.399Z,12.90
2018-10-05T00:40:07.283Z,13.60
2018-10-05T00:42:37.627Z,14.33
2018-10-05T00:45:08.028Z,14.40
2018-10-05T00:47:38.854Z,15.40
2018-10-05T00:50:09.385Z,15.60
2018-10-05T00:52:40.090Z,15.50
2018-10-05T00:55:11.305Z,17.20
2018-10-05T00:57:41.891Z,16.03
2018-10-05T01:00:12.087Z,15.27
2018-10-05T01:02:42.451Z,15.80
2018-10-05T01:05:12.922Z,15.37
2018-10-05T01:07:43.286Z,15.50
2018-10-05T01:10:13.561Z,14.93
2018-10-05T01:24:45.769Z,8.97
2018-10-05T01:27:16.071Z,10.40
2018-10-05T01:29:46.557Z,8.73
2018-10-05T01:32:17.126Z,8.87
2018-10-05T01:34:47.445Z,8.67
2018-10-05T01:37:17.720Z,10.07
2018-10-05T01:39:48.003Z,10.43
2018-10-05T01:42:18.431Z,11.77
2018-10-05T01:44:48.860Z,16.03
2018-10-05T01:47:19.088Z,38.13
2018-10-05T01:49:49.351Z,48.97
2018-10-05T01:52:19.710Z,51.27
2018-10-05T01:54:49.939Z,51.83
2018-10-05T01:57:20.258Z,49.43
2018-10-05T01:59:50.614Z,42.97
2018-10-05T02:02:20.871Z,47.33
2018-10-05T02:04:51.160Z,48.20
2018-10-05T02:07:22.048Z,42.30
2018-10-05T02:09:52.472Z,32.93
2018-10-05T02:12:23.169Z,31.37
2018-10-05T02:14:53.716Z,37.07
2018-10-05T02:17:24.037Z,29.37
2018-10-05T02:19:54.439Z,16.77
2018-10-05T02:22:24.764Z,10.37
2018-10-05T02:24:55.123Z,10.73
2018-10-05T02:27:25.397Z,9.90
2018-10-05T02:29:55.752Z,9.83
2018-10-05T02:32:26.055Z,9.87
2018-10-05T02:34:56.395Z,10.33
2018-10-05T02:37:26.762Z,9.80
2018-10-05T02:39:57.044Z,10.80
2018-10-05T02:42:27.338Z,10.93
2018-10-05T02:44:57.788Z,10.67
2018-10-05T02:47:28.043Z,10.70
2018-10-05T02:49:58.364Z,11.10
2018-10-05T02:52:28.668Z,11.27
2018-10-05T02:54:58.888Z,10.80
2018-10-05T02:57:29.303Z,11.30
2018-10-05T02:59:59.641Z,11.57
2018-10-05T03:02:34.988Z,12.63
2018-10-05T03:05:05.313Z,12.57
2018-10-05T03:07:35.725Z,13.13
2018-10-05T03:10:06.162Z,12.50
2018-10-05T03:12:36.543Z,12.70
2018-10-05T03:15:06.927Z,12.33
2018-10-05T03:17:37.271Z,12.63
2018-10-05T03:20:08.046Z,11.83
2018-10-05T03:22:38.375Z,12.00
2018-10-05T03:25:08.731Z,11.37
2018-10-05T03:27:39.056Z,11.47
2018-10-05T03:30:09.539Z,11.13
2018-10-05T03:32:39.852Z,10.23
2018-10-05T03:35:10.978Z,9.47
2018-10-05T03:37:41.734Z,9.97
2018-10-05T03:40:12.032Z,9.50
2018-10-05T03:42:42.760Z,9.10
2018-10-05T03:45:13.300Z,10.07
2018-10-05T03:47:44.232Z,9.50
2018-10-05T03:50:14.569Z,8.83
2018-10-05T03:52:45.130Z,8.80
2018-10-05T03:55:15.658Z,8.27
2018-10-05T03:57:46.243Z,8.07
2018-10-05T04:00:16.718Z,8.80
2018-10-05T04:02:47.166Z,9.20
2018-10-05T04:05:17.484Z,13.77
2018-10-05T04:07:47.720Z,26.27
2018-10-05T04:10:17.979Z,28.17
2018-10-05T04:12:48.366Z,22.13
2018-10-05T04:15:18.653Z,13.00
2018-10-05T04:17:49.350Z,9.13
2018-10-05T04:20:19.684Z,8.27
2018-10-05T04:22:50.087Z,8.17
2018-10-05T04:25:20.509Z,8.23
2018-10-05T04:27:50.814Z,8.07
2018-10-05T04:30:21.038Z,8.77
2018-10-05T04:32:51.742Z,7.77
2018-10-05T04:35:22.352Z,8.10
2018-10-05T04:37:52.963Z,8.40
2018-10-05T04:40:23.495Z,7.70
2018-10-05T04:42:53.851Z,8.00
2018-10-05T04:45:24.306Z,7.73
2018-10-05T04:47:55.091Z,7.20
2018-10-05T04:50:25.494Z,7.80
2018-10-05T04:52:55.774Z,7.53
2018-10-05T04:55:26.177Z,7.50
2018-10-05T04:57:56.515Z,7.43
2018-10-05T05:00:26.731Z,7.87
2018-10-05T05:02:57.290Z,12.67
2018-10-05T05:05:27.638Z,7.30
2018-10-05T05:07:58.846Z,6.93
2018-10-05T05:28:32.668Z,5.47
2018-10-05T05:34:03.131Z,4.17
2018-10-05T05:36:33.733Z,4.43
2018-10-05T05:39:05.387Z,4.67
2018-10-05T05:41:36.025Z,4.07
2018-10-05T05:44:06.596Z,4.03
2018-10-05T05:46:37.134Z,3.73
2018-10-05T05:49:07.832Z,4.30
2018-10-05T05:51:38.484Z,3.40
2018-10-05T05:54:09.254Z,3.87
2018-10-05T05:56:40.016Z,4.17
2018-10-05T05:59:10.687Z,4.00
2018-10-05T06:01:41.272Z,3.33
2018-10-05T06:04:11.758Z,3.50
2018-10-05T06:06:42.481Z,5.10
2018-10-05T06:09:13.006Z,4.80
2018-10-05T06:11:43.809Z,5.00
2018-10-05T06:14:15.479Z,4.90
2018-10-05T06:16:46.301Z,4.67
2018-10-05T06:19:17.690Z,5.10
2018-10-05T06:21:48.479Z,5.57
2018-10-05T06:24:18.946Z,4.70
2018-10-05T06:26:50.351Z,5.23
2018-10-05T06:29:21.277Z,4.30
2018-10-05T06:31:52.157Z,4.23
2018-10-05T06:34:22.581Z,3.73
2018-10-05T06:36:53.091Z,3.80
2018-10-05T06:39:23.876Z,4.27
2018-10-05T06:41:54.555Z,4.13
2018-10-05T06:44:24.975Z,4.20
2018-10-05T06:46:56.233Z,5.70
2018-10-05T06:49:33.666Z,3.97
2018-10-05T06:52:04.258Z,3.80
2018-10-05T06:54:35.070Z,3.80
2018-10-05T06:57:05.630Z,3.97
2018-10-05T06:59:36.423Z,10.07
2018-10-05T07:02:06.939Z,6.80
2018-10-05T07:04:37.414Z,4.80
2018-10-05T07:07:08.500Z,4.63
2018-10-05T07:09:39.217Z,6.97
2018-10-05T07:12:09.760Z,5.90
2018-10-05T07:14:40.701Z,15.07
2018-10-05T07:17:11.303Z,4.33
2018-10-05T07:19:42.022Z,6.27
2018-10-05T07:22:12.637Z,10.87
2018-10-05T07:24:43.550Z,12.07
2018-10-05T07:27:14.026Z,4.00
2018-10-05T07:29:44.401Z,5.07
2018-10-05T07:32:15.689Z,4.10
2018-10-05T07:34:46.293Z,6.83
2018-10-05T07:37:16.942Z,8.50
2018-10-05T07:39:47.503Z,4.70
2018-10-05T07:42:23.021Z,3.30
2018-10-05T07:44:54.186Z,12.13
2018-10-05T07:47:24.644Z,7.53
2018-10-05T07:49:55.304Z,5.53
2018-10-05T07:52:26.064Z,10.97
2018-10-05T07:54:56.519Z,5.83
2018-10-05T07:57:27.613Z,4.07
2018-10-05T07:59:58.169Z,6.97
2018-10-05T08:02:28.978Z,11.30
2018-10-05T08:04:59.627Z,15.53
2018-10-05T08:07:30.359Z,6.10
2018-10-05T08:10:00.884Z,12.93
2018-10-05T08:12:31.641Z,6.40
2018-10-05T08:15:02.431Z,10.17
2018-10-05T08:17:33.260Z,10.57
2018-10-05T08:20:03.658Z,6.43
2018-10-05T08:22:34.291Z,7.83
2018-10-05T08:25:04.994Z,3.90
2018-10-05T08:27:35.818Z,5.27
2018-10-05T08:30:07.214Z,8.60
2018-10-05T08:32:37.960Z,14.27
2018-10-05T08:35:08.793Z,13.73
2018-10-05T08:37:39.923Z,12.87
2018-10-05T08:40:11.233Z,12.03
2018-10-05T08:42:41.774Z,14.20
2018-10-05T08:45:12.317Z,7.27
2018-10-05T08:47:43.136Z,9.90
2018-10-05T08:50:13.778Z,6.73
2018-10-05T08:53:03.764Z,5.30
2018-10-05T08:55:37.243Z,3.43
2018-10-05T08:58:08.069Z,4.97
2018-10-05T09:00:38.650Z,6.10
2018-10-05T09:03:09.278Z,3.50
2018-10-05T09:05:39.934Z,7.70
2018-10-05T09:08:10.405Z,14.87
2018-10-05T09:10:40.805Z,12.67
2018-10-05T09:13:11.311Z,6.77
2018-10-05T09:15:41.801Z,6.20
2018-10-05T09:18:12.513Z,9.63
2018-10-05T09:20:43.275Z,3.67
2018-10-05T09:23:13.911Z,6.63
2018-10-05T09:25:44.504Z,14.10
2018-10-05T09:28:15.177Z,12.67
2018-10-05T09:30:45.899Z,10.17
2018-10-05T09:33:16.478Z,6.53
2018-10-05T09:35:47.171Z,8.93
2018-10-05T09:38:17.859Z,4.90
2018-10-05T09:40:49.554Z,5.00
2018-10-05T09:43:20.311Z,10.87
2018-10-05T09:45:51.164Z,6.70
2018-10-05T09:48:21.835Z,13.37
2018-10-05T09:50:52.372Z,5.43
2018-10-05T09:53:23.235Z,10.47
2018-10-05T09:55:53.820Z,8.90
2018-10-05T09:58:24.534Z,9.77
2018-10-05T10:00:59.974Z,3.80
2018-10-05T10:03:33.431Z,14.23
2018-10-05T10:06:04.873Z,5.67
2018-10-05T10:08:35.597Z,6.27
2018-10-05T10:11:06.244Z,6.73
2018-10-05T10:13:37.209Z,3.73
2018-10-05T10:16:07.978Z,5.47
2018-10-05T10:18:38.635Z,6.93
2018-10-05T10:21:09.501Z,7.43
2018-10-05T10:23:40.063Z,10.60
2018-10-05T10:26:10.497Z,14.93
2018-10-05T10:28:41.163Z,16.67
2018-10-05T10:31:12.325Z,4.60
2018-10-05T10:33:43.008Z,2.60
2018-10-05T10:36:13.624Z,7.43
2018-10-05T10:38:44.171Z,3.70
2018-10-05T10:41:14.715Z,4.83
2018-10-05T10:43:45.440Z,5.47
2018-10-05T10:46:16.968Z,8.43
2018-10-05T10:48:47.765Z,12.70
2018-10-05T10:51:18.433Z,5.37
2018-10-05T10:53:48.974Z,4.83
2018-10-05T10:56:20.141Z,6.60
2018-10-05T10:58:50.775Z,5.00
2018-10-05T11:01:21.953Z,5.80
2018-10-05T11:03:53.077Z,6.03
2018-10-05T11:06:23.896Z,4.33
2018-10-05T11:08:54.674Z,9.57
2018-10-05T11:11:25.562Z,13.83
2018-10-05T11:13:56.081Z,5.00
2018-10-05T11:16:32.712Z,3.60
2018-10-05T11:19:03.316Z,3.10
2018-10-05T11:21:34.462Z,10.67
2018-10-05T11:24:05.143Z,15.30
2018-10-05T11:26:35.623Z,7.90
2018-10-05T11:29:06.093Z,4.30
2018-10-05T11:31:37.269Z,8.63
2018-10-05T11:34:07.759Z,9.83
2018-10-05T11:36:38.525Z,19.33
2018-10-05T11:39:09.304Z,16.77
2018-10-05T11:41:39.829Z,12.47
2018-10-05T11:44:10.468Z,5.83
2018-10-05T11:46:41.220Z,4.27
2018-10-05T11:49:12.457Z,7.17
2018-10-05T11:51:43.066Z,3.00
2018-10-05T11:54:13.779Z,3.93
2018-10-05T11:56:44.363Z,4.63
2018-10-05T11:59:15.151Z,4.87
2018-10-05T12:01:46.149Z,4.50
2018-10-05T12:04:16.952Z,3.30
2018-10-05T12:06:48.005Z,2.63
2018-10-05T12:09:18.761Z,2.23
2018-10-05T12:11:49.512Z,2.30
2018-10-05T12:14:20.045Z,2.47
2018-10-05T12:16:50.657Z,2.40
2018-10-05T12:19:21.358Z,2.60
2018-10-05T12:21:51.902Z,2.60
2018-10-05T12:24:22.621Z,2.80
2018-10-05T12:26:52.998Z,2.70
2018-10-05T12:29:24.143Z,3.20
2018-10-05T13:02:29.087Z,2.30
2018-10-05T13:14:01.813Z,2.27
2018-10-05T13:46:32.577Z,3.00
2018-10-05T14:04:58.713Z,3.13
2018-10-05T14:07:29.621Z,2.87
2018-10-05T14:10:01.776Z,3.40
2018-10-05T14:12:33.648Z,3.87
2018-10-05T14:15:07.742Z,5.00
2018-10-05T14:17:40.659Z,3.00
2018-10-05T14:20:14.512Z,3.17
2018-10-05T14:22:51.285Z,3.10
2018-10-05T14:25:25.654Z,2.80
2018-10-05T14:27:56.930Z,4.47
2018-10-05T14:30:30.178Z,4.47
2018-10-05T14:33:05.463Z,2.83
2018-10-05T14:35:37.681Z,2.67
2018-10-05T14:38:08.234Z,3.37
2018-10-05T14:40:38.838Z,2.60
2018-10-05T14:43:09.436Z,2.90
2018-10-05T14:45:40.110Z,3.10
2018-10-05T14:54:11.464Z,3.27
2018-10-05T14:56:42.044Z,2.90
2018-10-05T14:59:12.708Z,3.30
2018-10-05T15:01:43.264Z,2.80
2018-10-05T15:04:13.864Z,3.43
2018-10-05T15:06:45.485Z,3.60
2018-10-05T15:09:17.252Z,5.57
2018-10-05T15:11:47.788Z,3.83
2018-10-05T15:14:18.352Z,9.33
2018-10-05T15:16:48.899Z,10.10
2018-10-05T15:19:19.602Z,6.13
2018-10-05T15:21:50.236Z,6.43
2018-10-05T15:24:21.017Z,6.53
2018-10-05T15:26:52.179Z,16.10
2018-10-05T15:29:22.956Z,19.23
2018-10-05T15:31:53.646Z,17.70
2018-10-05T15:34:24.573Z,6.37
2018-10-05T15:36:55.632Z,3.73
2018-10-05T15:39:26.302Z,4.37
2018-10-05T15:41:57.043Z,4.40
2018-10-05T15:44:27.688Z,6.87
2018-10-05T15:47:08.396Z,16.03
2018-10-05T15:49:39.713Z,12.13
2018-10-05T15:52:10.620Z,5.80
2018-10-05T15:54:41.350Z,5.40
2018-10-05T15:57:12.413Z,5.20
2018-10-05T15:59:43.239Z,6.73
2018-10-05T16:02:14.017Z,4.60
2018-10-05T16:04:44.381Z,4.50
2018-10-05T16:07:16.587Z,4.77
2018-10-05T16:09:48.386Z,11.67
2018-10-05T16:12:19.135Z,30.97
2018-10-05T16:14:49.834Z,27.83
2018-10-05T16:17:20.595Z,28.30
2018-10-05T16:19:51.621Z,11.33
2018-10-05T16:22:22.224Z,13.20
2018-10-05T16:24:53.153Z,11.17
2018-10-05T16:27:23.796Z,5.47
2018-10-05T16:29:54.470Z,6.43
2018-10-05T16:32:25.036Z,6.33
2018-10-05T16:34:55.674Z,9.57
2018-10-05T16:37:26.756Z,10.50
2018-10-05T16:39:57.396Z,7.60
2018-10-05T16:42:28.169Z,6.10
2018-10-05T16:45:05.270Z,5.50
2018-10-05T16:47:35.788Z,8.13
2018-10-05T16:50:06.411Z,13.17
2018-10-05T16:52:40.304Z,34.80
2018-10-05T16:55:11.919Z,36.27
2018-10-05T16:57:43.057Z,38.87
2018-10-05T17:00:13.617Z,23.17
2018-10-05T17:02:44.772Z,26.37
2018-10-05T17:05:15.811Z,48.67
2018-10-05T17:07:46.463Z,33.77
2018-10-05T17:10:17.118Z,29.20
2018-10-05T17:12:49.293Z,45.53
2018-10-05T17:15:26.695Z,18.70
2018-10-05T17:17:57.900Z,22.63
2018-10-05T17:20:28.671Z,12.67
2018-10-05T17:22:59.283Z,9.97
2018-10-05T17:25:29.853Z,5.90
2018-10-05T17:28:00.409Z,31.47
2018-10-05T17:30:31.247Z,12.63
2018-10-05T17:33:02.098Z,32.10
2018-10-05T17:35:32.997Z,39.37
2018-10-05T17:38:04.315Z,23.97
2018-10-05T17:40:35.039Z,41.33
2018-10-05T17:43:05.944Z,40.57
2018-10-05T17:45:36.948Z,28.07
2018-10-05T17:48:07.896Z,45.57
2018-10-05T17:50:38.372Z,52.07
2018-10-05T17:53:09.219Z,56.77
2018-10-05T17:55:39.852Z,52.30
2018-10-05T17:58:10.662Z,48.87
2018-10-05T18:00:41.347Z,37.00
2018-10-05T18:03:12.301Z,25.07
2018-10-05T18:05:44.725Z,26.27
2018-10-05T18:08:15.344Z,24.13
2018-10-05T18:10:45.976Z,14.80
2018-10-05T18:13:17.055Z,29.17
2018-10-05T18:15:49.591Z,20.90
2018-10-05T18:18:20.962Z,17.73
2018-10-05T18:20:51.652Z,23.57
2018-10-05T18:23:22.692Z,39.17
2018-10-05T18:25:53.623Z,43.93
2018-10-05T18:28:24.350Z,52.67
2018-10-05T18:30:54.967Z,41.73
2018-10-05T18:33:25.791Z,29.50
2018-10-05T18:35:58.876Z,38.07
2018-10-05T18:38:33.916Z,32.17
2018-10-05T18:41:04.609Z,43.23
2018-10-05T18:43:37.563Z,37.70
2018-10-05T18:46:08.684Z,33.50
2018-10-05T18:48:39.853Z,24.13
2018-10-05T18:51:11.994Z,39.23
2018-10-05T18:53:42.980Z,25.17
2018-10-05T18:56:24.157Z,16.77
2018-10-05T18:58:55.609Z,20.40
2018-10-05T19:01:27.986Z,25.23
2018-10-05T19:03:58.695Z,36.00
2018-10-05T19:06:32.395Z,20.80
2018-10-05T19:09:04.246Z,13.83
2018-10-05T19:11:35.877Z,9.20
2018-10-05T19:14:06.562Z,11.37
2018-10-05T19:16:38.053Z,11.83
2018-10-05T19:19:09.171Z,8.30
2018-10-05T19:21:40.046Z,6.27
2018-10-05T19:24:10.691Z,7.97
2018-10-05T19:26:41.429Z,6.70
2018-10-05T19:29:12.170Z,17.77
2018-10-05T19:31:43.446Z,15.03
2018-10-05T19:34:14.264Z,19.57
2018-10-05T19:37:29.316Z,19.53
2018-10-05T20:01:18.184Z,34.23
2018-10-05T20:03:48.836Z,27.73
2018-10-05T20:06:22.130Z,24.67
2018-10-05T20:08:53.133Z,17.20
2018-10-05T20:11:24.259Z,18.17
2018-10-05T20:13:54.943Z,14.60
2018-10-05T20:16:25.467Z,19.47
2018-10-05T20:18:57.748Z,14.27
2018-10-05T20:21:31.071Z,14.03
2018-10-05T20:24:01.607Z,12.50
2018-10-05T20:26:32.231Z,12.00
2018-10-05T20:29:03.075Z,8.80
2018-10-05T20:31:33.724Z,8.10
2018-10-05T20:34:04.292Z,6.57
2018-10-05T20:36:35.159Z,7.40
2018-10-05T20:39:07.308Z,8.40
2018-10-05T20:41:38.884Z,7.20
2018-10-05T20:44:09.829Z,7.80
2018-10-05T20:46:40.596Z,8.43
2018-10-05T20:49:11.164Z,6.47
2018-10-05T20:51:41.768Z,7.60
2018-10-05T20:54:12.544Z,11.63
2018-10-05T20:56:43.435Z,23.43
2018-10-05T20:59:23.333Z,19.07
2018-10-05T21:01:53.906Z,18.00
2018-10-05T21:04:24.866Z,21.57
2018-10-05T21:06:55.487Z,22.27
2018-10-05T21:09:26.178Z,20.33
2018-10-05T21:11:56.918Z,17.27
2018-10-05T21:14:27.773Z,26.30
2018-10-05T21:16:58.229Z,23.90
2018-10-05T21:19:29.129Z,19.93
2018-10-05T21:22:00.124Z,24.63
2018-10-05T21:24:30.675Z,27.20
2018-10-05T21:27:01.341Z,37.77
2018-10-05T21:29:32.273Z,56.30
2018-10-05T21:32:02.780Z,54.87
2018-10-05T21:34:33.524Z,24.00
2018-10-05T21:37:04.010Z,33.43
2018-10-05T21:39:34.505Z,28.80
2018-10-05T21:42:05.177Z,30.13
2018-10-05T21:44:36.099Z,38.37
2018-10-05T21:47:06.933Z,45.73
2018-10-05T21:49:37.584Z,57.97
2018-10-05T21:52:08.652Z,52.00
2018-10-05T21:54:39.238Z,32.30
2018-10-05T21:57:09.821Z,26.80
2018-10-05T21:59:40.221Z,22.53
2018-10-05T22:02:10.660Z,38.93
2018-10-05T22:04:41.268Z,27.67
2018-10-05T22:07:11.797Z,36.53
2018-10-05T22:09:42.452Z,46.63
2018-10-05T22:12:12.996Z,48.23
2018-10-05T22:14:43.433Z,53.80
2018-10-05T22:17:14.161Z,54.80
2018-10-05T22:19:44.791Z,47.20
2018-10-05T22:22:15.545Z,64.57
2018-10-05T22:24:46.249Z,54.40
2018-10-05T22:27:16.720Z,47.83
2018-10-05T22:29:47.441Z,64.00
2018-10-05T22:32:18.120Z,75.10
2018-10-05T22:34:48.834Z,69.13
2018-10-05T22:37:19.414Z,58.97
2018-10-05T22:39:50.003Z,50.67
2018-10-05T22:42:20.449Z,52.10
2018-10-05T22:44:51.128Z,36.07
2018-10-05T22:47:22.024Z,15.63
2018-10-05T22:49:52.827Z,12.13
2018-10-05T22:52:23.448Z,15.20
2018-10-05T22:54:53.959Z,10.47
2018-10-05T22:57:24.543Z,9.57
2018-10-05T22:59:55.169Z,9.03
2018-10-05T23:02:25.642Z,8.23
2018-10-05T23:04:56.145Z,8.30
2018-10-05T23:07:26.629Z,8.60
2018-10-05T23:09:57.386Z,9.10
2018-10-05T23:12:28.379Z,10.47
2018-10-05T23:14:58.846Z,9.17
2018-10-05T23:17:29.396Z,9.13
2018-10-05T23:19:59.948Z,8.93
2018-10-05T23:22:31.059Z,7.70
2018-10-05T23:25:01.712Z,14.83
2018-10-05T23:27:32.199Z,19.73
2018-10-05T23:30:02.771Z,26.83
2018-10-05T23:32:33.407Z,19.90
2018-10-05T23:35:04.059Z,23.30
2018-10-05T23:37:34.596Z,8.67
2018-10-05T23:40:05.291Z,13.33
2018-10-05T23:42:35.865Z,10.70
2018-10-05T23:45:06.618Z,12.40
2018-10-05T23:47:37.426Z,12.30
2018-10-05T23:50:08.197Z,21.43
2018-10-05T23:52:49.578Z,25.77
2018-10-05T23:55:20.611Z,27.23
2018-10-05T23:57:51.769Z,39.57
